createdAt,value
2023-05-19T00:01:25.626Z,10.90
2023-05-19T00:04:13.788Z,10.80
2023-05-19T00:07:00.589Z,10.70
2023-05-19T00:09:46.180Z,10.70
2023-05-19T00:12:32.251Z,10.70
2023-05-19T00:15:17.843Z,10.70
2023-05-19T00:18:03.199Z,10.60
2023-05-19T00:20:49.024Z,10.60
2023-05-19T00:23:37.081Z,10.50
2023-05-19T00:26:23.292Z,10.50
2023-05-19T00:29:21.085Z,10.40
2023-05-19T00:32:07.018Z,10.40
2023-05-19T00:34:52.870Z,10.40
2023-05-19T00:37:41.654Z,10.30
2023-05-19T00:40:29.082Z,10.30
2023-05-19T00:43:14.533Z,10.20
2023-05-19T00:46:00.232Z,10.20
2023-05-19T00:48:46.306Z,10.10
2023-05-19T00:51:32.468Z,10.10
2023-05-19T00:54:18.417Z,10.00
2023-05-19T00:57:04.335Z,10.10
2023-05-19T00:59:59.257Z,10.00
2023-05-19T01:02:45.181Z,10.00
2023-05-19T01:05:31.245Z,10.00
2023-05-19T01:08:17.134Z,9.90
2023-05-19T01:11:04.281Z,9.90
2023-05-19T01:13:49.977Z,9.90
2023-05-19T01:16:40.507Z,9.90
2023-05-19T01:19:50.807Z,9.90
2023-05-19T01:23:05.253Z,9.90
2023-05-19T01:26:04.318Z,9.80
2023-05-19T01:28:56.053Z,9.80
2023-05-19T01:31:42.888Z,9.80
2023-05-19T01:34:30.961Z,9.70
2023-05-19T01:37:17.715Z,9.70
2023-05-19T01:40:07.342Z,9.70
2023-05-19T01:42:58.480Z,9.70
2023-05-19T01:45:45.178Z,9.70
2023-05-19T01:48:31.187Z,9.70
2023-05-19T01:51:19.665Z,9.70
2023-05-19T01:54:05.091Z,9.60
2023-05-19T01:57:13.758Z,9.60
2023-05-19T02:00:17.459Z,9.60
2023-05-19T02:03:09.877Z,9.60
2023-05-19T02:06:09.114Z,9.60
2023-05-19T02:09:16.989Z,9.60
2023-05-19T02:12:23.140Z,9.60
2023-05-19T02:15:16.588Z,9.60
2023-05-19T02:18:04.711Z,9.60
2023-05-19T02:21:00.479Z,9.60
2023-05-19T02:23:46.753Z,9.60
2023-05-19T02:26:32.353Z,9.60
2023-05-19T02:29:17.909Z,9.60
2023-05-19T02:32:03.584Z,9.50
2023-05-19T02:34:49.846Z,9.50
2023-05-19T02:37:36.265Z,9.50
2023-05-19T02:40:22.327Z,9.50
2023-05-19T02:43:08.732Z,9.50
2023-05-19T02:45:53.986Z,9.50
2023-05-19T02:48:39.539Z,9.40
2023-05-19T02:51:25.152Z,9.40
2023-05-19T02:54:13.227Z,9.40
2023-05-19T02:56:59.033Z,9.30
2023-05-19T02:59:44.572Z,9.30
2023-05-19T03:02:30.919Z,9.30
2023-05-19T03:05:16.495Z,9.30
2023-05-19T03:08:01.870Z,9.20
2023-05-19T03:10:48.070Z,9.20
2023-05-19T03:13:33.898Z,9.20
2023-05-19T03:16:19.690Z,9.20
2023-05-19T03:19:04.993Z,9.10
2023-05-19T03:21:50.845Z,9.10
2023-05-19T03:24:36.360Z,9.10
2023-05-19T03:27:22.012Z,9.10
2023-05-19T03:30:09.047Z,9.10
2023-05-19T03:33:05.353Z,9.20
2023-05-19T03:35:53.029Z,9.20
2023-05-19T03:38:38.844Z,9.20
2023-05-19T03:41:24.443Z,9.20
2023-05-19T03:44:10.634Z,9.20
2023-05-19T03:46:56.013Z,9.20
2023-05-19T03:50:02.299Z,9.20
2023-05-19T03:53:10.604Z,9.20
2023-05-19T03:56:00.621Z,9.20
2023-05-19T03:58:47.249Z,9.20
2023-05-19T04:01:33.955Z,9.20
2023-05-19T04:04:19.280Z,9.20
2023-05-19T04:07:04.941Z,9.20
2023-05-19T04:09:56.565Z,9.20
2023-05-19T04:12:41.739Z,9.20
2023-05-19T04:15:27.506Z,9.30
2023-05-19T04:18:14.063Z,9.30
2023-05-19T04:20:59.660Z,9.30
2023-05-19T04:23:44.806Z,9.40
2023-05-19T04:26:33.662Z,9.40
2023-05-19T04:29:23.727Z,9.40
2023-05-19T04:32:10.845Z,9.40
2023-05-19T04:34:58.893Z,9.40
2023-05-19T04:37:46.142Z,9.50
2023-05-19T04:40:33.654Z,9.50
2023-05-19T04:43:19.465Z,9.60
2023-05-19T04:46:06.396Z,9.70
2023-05-19T04:48:53.321Z,9.70
2023-05-19T04:51:41.422Z,9.80
2023-05-19T04:54:27.732Z,9.80
2023-05-19T04:57:14.422Z,9.90
2023-05-19T05:00:05.228Z,9.90
2023-05-19T05:02:57.651Z,10.00
2023-05-19T05:05:44.703Z,10.00
2023-05-19T05:08:30.455Z,10.10
2023-05-19T05:11:16.176Z,10.10
2023-05-19T05:14:01.976Z,10.20
2023-05-19T05:16:49.667Z,10.20
2023-05-19T05:19:40.898Z,10.20
2023-05-19T05:22:26.448Z,10.30
2023-05-19T05:25:13.323Z,10.30
2023-05-19T05:28:00.012Z,10.40
2023-05-19T05:30:46.629Z,10.40
2023-05-19T05:33:33.513Z,10.40
2023-05-19T05:36:21.806Z,10.40
2023-05-19T05:39:10.556Z,10.60
2023-05-19T05:41:58.435Z,10.50
2023-05-19T05:44:44.183Z,10.70
2023-05-19T05:47:29.576Z,10.60
2023-05-19T05:50:15.526Z,10.60
2023-05-19T05:53:06.834Z,10.70
2023-05-19T05:55:55.147Z,10.80
2023-05-19T05:58:45.398Z,10.70
2023-05-19T06:01:31.143Z,10.80
2023-05-19T06:04:17.524Z,10.80
2023-05-19T06:07:02.951Z,10.90
2023-05-19T06:09:52.775Z,11.00
2023-05-19T06:12:43.265Z,11.10
2023-05-19T06:15:29.975Z,11.10
2023-05-19T06:18:23.649Z,11.20
2023-05-19T06:21:14.026Z,11.20
2023-05-19T06:24:00.753Z,11.30
2023-05-19T06:26:46.398Z,11.40
2023-05-19T06:29:32.021Z,11.50
2023-05-19T06:32:21.353Z,11.60
2023-05-19T06:35:07.448Z,11.60
2023-05-19T06:37:53.526Z,11.80
2023-05-19T06:40:43.200Z,11.80
2023-05-19T06:43:29.120Z,11.90
2023-05-19T06:46:17.931Z,12.00
2023-05-19T06:49:03.902Z,12.20
2023-05-19T06:51:53.607Z,12.30
2023-05-19T06:54:39.723Z,12.40
2023-05-19T06:57:25.786Z,12.40
2023-05-19T07:00:13.432Z,12.60
2023-05-19T07:03:02.381Z,12.70
2023-05-19T07:05:50.159Z,12.80
2023-05-19T07:08:37.428Z,12.90
2023-05-19T07:11:26.420Z,13.00
2023-05-19T07:14:11.975Z,13.10
2023-05-19T07:16:57.331Z,13.30
2023-05-19T07:19:43.283Z,13.30
2023-05-19T07:22:28.844Z,13.50
2023-05-19T07:25:14.191Z,13.60
2023-05-19T07:27:59.803Z,13.60
2023-05-19T07:30:45.369Z,13.70
2023-05-19T07:33:31.120Z,13.80
2023-05-19T07:36:19.519Z,13.80
2023-05-19T07:39:05.251Z,13.90
2023-05-19T07:41:54.347Z,14.10
2023-05-19T07:44:39.624Z,14.10
2023-05-19T07:47:26.281Z,14.30
2023-05-19T07:50:12.073Z,14.30
2023-05-19T07:52:57.507Z,14.50
2023-05-19T07:55:43.139Z,14.70
2023-05-19T07:58:28.647Z,14.70
2023-05-19T08:01:14.333Z,14.80
2023-05-19T08:04:00.297Z,14.90
2023-05-19T08:06:46.037Z,14.90
2023-05-19T08:09:31.795Z,15.20
2023-05-19T08:12:17.321Z,15.30
2023-05-19T08:15:02.575Z,15.40
2023-05-19T08:17:48.254Z,15.50
2023-05-19T08:20:34.300Z,15.50
2023-05-19T08:23:20.483Z,15.70
2023-05-19T08:26:06.166Z,15.70
2023-05-19T08:28:52.025Z,15.70
2023-05-19T08:31:37.599Z,15.70
2023-05-19T08:34:23.009Z,15.80
2023-05-19T08:37:08.677Z,15.90
2023-05-19T08:39:54.376Z,16.00
2023-05-19T08:42:39.741Z,16.00
2023-05-19T08:45:25.451Z,16.00
2023-05-19T08:48:11.861Z,16.00
2023-05-19T08:51:09.205Z,16.10
2023-05-19T08:54:03.590Z,16.10
2023-05-19T08:56:49.415Z,16.10
2023-05-19T08:59:35.323Z,16.20
2023-05-19T09:02:22.607Z,16.30
2023-05-19T09:05:09.133Z,16.30
2023-05-19T09:07:55.235Z,16.40
2023-05-19T09:10:41.299Z,16.50
2023-05-19T09:13:26.979Z,16.60
2023-05-19T09:16:13.229Z,16.60
2023-05-19T09:18:59.095Z,16.60
2023-05-19T09:21:45.760Z,16.70
2023-05-19T09:24:32.120Z,16.80
2023-05-19T09:27:25.225Z,17.00
2023-05-19T09:30:10.622Z,17.10
2023-05-19T09:32:56.321Z,17.30
2023-05-19T09:35:47.204Z,17.50
2023-05-19T09:38:32.711Z,17.50
2023-05-19T09:41:18.117Z,17.60
2023-05-19T09:44:03.656Z,17.70
2023-05-19T09:46:50.707Z,17.90
2023-05-19T09:49:36.460Z,18.10
2023-05-19T09:52:22.216Z,18.30
2023-05-19T09:55:11.051Z,18.50
2023-05-19T09:57:56.925Z,18.60
2023-05-19T10:00:43.011Z,18.80
2023-05-19T10:03:28.876Z,19.00
2023-05-19T10:06:17.573Z,19.00
2023-05-19T10:09:04.051Z,19.00
2023-05-19T10:11:51.465Z,18.90
2023-05-19T10:14:37.783Z,19.00
2023-05-19T10:17:26.198Z,19.10
2023-05-19T10:20:14.153Z,19.20
2023-05-19T10:22:59.575Z,19.40
2023-05-19T10:25:49.041Z,19.70
2023-05-19T10:28:41.302Z,19.90
2023-05-19T10:31:27.582Z,20.00
2023-05-19T10:34:50.249Z,20.20
2023-05-19T10:37:55.482Z,20.50
2023-05-19T10:41:06.831Z,20.80
2023-05-19T10:44:04.373Z,20.90
2023-05-19T10:46:49.990Z,21.10
2023-05-19T10:49:36.685Z,21.50
2023-05-19T10:52:26.121Z,21.70
2023-05-19T10:55:17.460Z,21.80
2023-05-19T10:58:03.119Z,22.00
2023-05-19T11:01:01.124Z,22.00
2023-05-19T11:03:54.948Z,22.00
2023-05-19T11:06:52.153Z,22.00
2023-05-19T11:09:41.235Z,22.20
2023-05-19T11:12:27.140Z,22.10
2023-05-19T11:15:14.635Z,22.00
2023-05-19T11:18:03.379Z,22.30
2023-05-19T11:21:00.833Z,23.10
2023-05-19T11:23:46.342Z,24.30
2023-05-19T11:26:48.249Z,25.30
2023-05-19T11:29:34.860Z,26.10
2023-05-19T11:32:21.890Z,26.70
2023-05-19T11:35:08.075Z,27.50
2023-05-19T11:37:54.854Z,28.10
2023-05-19T11:40:42.649Z,28.30
2023-05-19T11:43:27.932Z,28.50
2023-05-19T11:46:13.934Z,29.10
2023-05-19T11:48:59.589Z,29.10
2023-05-19T11:51:47.911Z,29.30
2023-05-19T11:54:39.151Z,29.80
2023-05-19T11:57:27.469Z,30.10
2023-05-19T12:00:14.621Z,30.40
2023-05-19T12:03:00.237Z,30.80
2023-05-19T12:05:48.198Z,31.40
2023-05-19T12:08:35.478Z,31.60
2023-05-19T12:11:20.881Z,31.70
2023-05-19T12:14:13.048Z,32.10
2023-05-19T12:16:58.234Z,32.00
2023-05-19T12:19:45.046Z,32.20
2023-05-19T12:22:30.637Z,32.70
2023-05-19T12:25:17.100Z,32.70
2023-05-19T12:28:05.797Z,32.90
2023-05-19T12:30:52.618Z,33.30
2023-05-19T12:33:38.154Z,33.30
2023-05-19T12:36:25.278Z,33.20
2023-05-19T12:39:11.632Z,33.20
2023-05-19T12:42:04.529Z,33.20
2023-05-19T12:44:52.749Z,33.10
2023-05-19T12:47:39.096Z,32.80
2023-05-19T12:50:31.488Z,33.00
2023-05-19T12:53:17.278Z,33.40
2023-05-19T12:56:18.406Z,33.60
2023-05-19T12:59:04.272Z,33.90
2023-05-19T13:01:57.333Z,33.70
2023-05-19T13:04:42.861Z,33.90
2023-05-19T13:07:28.448Z,34.60
2023-05-19T13:10:16.997Z,35.00
2023-05-19T13:13:03.472Z,35.40
2023-05-19T13:15:51.969Z,35.80
2023-05-19T13:18:38.316Z,36.10
2023-05-19T13:21:23.540Z,36.40
2023-05-19T13:24:09.365Z,36.60
2023-05-19T13:26:55.993Z,36.70
2023-05-19T13:29:44.504Z,36.60
2023-05-19T13:32:29.929Z,36.60
2023-05-19T13:35:15.446Z,36.70
2023-05-19T13:38:01.052Z,36.90
2023-05-19T13:40:46.713Z,37.00
2023-05-19T13:43:32.223Z,37.10
2023-05-19T13:46:19.247Z,37.10
2023-05-19T13:49:07.157Z,37.50
2023-05-19T13:51:56.801Z,37.50
2023-05-19T13:54:42.103Z,37.40
2023-05-19T13:57:27.499Z,37.40
2023-05-19T14:00:13.874Z,37.20
2023-05-19T14:03:00.288Z,37.10
2023-05-19T14:05:48.530Z,37.30
2023-05-19T14:08:34.313Z,37.10
2023-05-19T14:11:23.680Z,37.40
2023-05-19T14:14:11.332Z,37.60
2023-05-19T14:16:57.253Z,38.00
2023-05-19T14:19:42.862Z,38.10
2023-05-19T14:22:28.345Z,38.00
2023-05-19T14:25:13.807Z,37.70
2023-05-19T14:27:59.932Z,37.40
2023-05-19T14:30:48.368Z,37.00
2023-05-19T14:33:35.706Z,37.30
2023-05-19T14:36:21.467Z,37.90
2023-05-19T14:39:07.229Z,38.40
2023-05-19T14:41:53.151Z,38.30
2023-05-19T14:44:38.523Z,37.90
2023-05-19T14:47:27.391Z,37.70
2023-05-19T14:50:18.809Z,37.50
2023-05-19T14:53:04.709Z,37.10
2023-05-19T14:55:50.302Z,37.10
2023-05-19T14:58:35.864Z,37.10
2023-05-19T15:01:21.446Z,37.20
2023-05-19T15:04:08.039Z,37.00
2023-05-19T15:07:05.823Z,36.70
2023-05-19T15:09:55.572Z,35.90
2023-05-19T15:12:41.184Z,35.60
2023-05-19T15:15:26.449Z,35.40
2023-05-19T15:18:18.469Z,35.00
2023-05-19T15:21:04.517Z,34.70
2023-05-19T15:23:49.995Z,34.70
2023-05-19T15:26:35.008Z,34.70
2023-05-19T15:29:20.417Z,34.60
2023-05-19T15:32:06.352Z,34.60
2023-05-19T15:34:51.994Z,34.90
2023-05-19T15:37:37.432Z,35.30
2023-05-19T15:40:25.949Z,36.00
2023-05-19T15:43:11.331Z,36.40
2023-05-19T15:45:56.773Z,36.50
2023-05-19T15:48:42.424Z,36.60
2023-05-19T15:51:28.084Z,36.80
2023-05-19T15:54:13.554Z,37.10
2023-05-19T15:56:59.168Z,37.20
2023-05-19T15:59:44.504Z,37.00
2023-05-19T16:02:30.195Z,37.20
2023-05-19T16:05:16.740Z,37.60
2023-05-19T16:08:02.176Z,37.60
2023-05-19T16:10:47.802Z,37.70
2023-05-19T16:13:33.867Z,37.50
2023-05-19T16:16:19.807Z,37.20
2023-05-19T16:19:07.716Z,37.10
2023-05-19T16:21:53.761Z,37.20
2023-05-19T16:24:39.070Z,37.30
2023-05-19T16:27:25.018Z,37.10
2023-05-19T16:30:10.564Z,36.60
2023-05-19T16:32:56.029Z,36.10
2023-05-19T16:35:41.355Z,35.60
2023-05-19T16:38:26.962Z,35.60
2023-05-19T16:41:12.584Z,35.70
2023-05-19T16:43:58.087Z,35.00
2023-05-19T16:46:43.366Z,35.00
2023-05-19T16:49:33.497Z,34.70
2023-05-19T16:52:18.906Z,34.30
2023-05-19T16:55:04.436Z,34.30
2023-05-19T16:57:49.548Z,34.40
2023-05-19T17:00:35.292Z,33.90
2023-05-19T17:03:21.316Z,33.70
2023-05-19T17:06:06.945Z,33.20
2023-05-19T17:08:52.370Z,32.90
2023-05-19T17:11:38.004Z,32.70
2023-05-19T17:14:23.503Z,32.70
2023-05-19T17:17:08.815Z,32.60
2023-05-19T17:19:54.178Z,32.60
2023-05-19T17:22:42.587Z,32.50
2023-05-19T17:25:28.404Z,32.50
2023-05-19T17:28:13.665Z,32.70
2023-05-19T17:30:59.193Z,32.60
2023-05-19T17:33:44.434Z,32.00
2023-05-19T17:36:29.818Z,31.60
2023-05-19T17:39:16.201Z,31.30
2023-05-19T17:42:02.622Z,30.70
2023-05-19T17:44:50.880Z,30.00
2023-05-19T17:47:36.464Z,29.30
2023-05-19T17:50:21.654Z,28.50
2023-05-19T17:53:07.465Z,27.80
2023-05-19T17:55:57.733Z,27.30
2023-05-19T17:58:44.171Z,27.00
2023-05-19T18:01:31.573Z,26.60
2023-05-19T18:04:24.429Z,26.40
2023-05-19T18:07:11.809Z,26.20
2023-05-19T18:10:00.431Z,25.80
2023-05-19T18:12:45.920Z,25.60
2023-05-19T18:15:31.562Z,25.30
2023-05-19T18:18:16.974Z,24.80
2023-05-19T18:21:02.414Z,24.50
2023-05-19T18:23:48.146Z,24.20
2023-05-19T18:26:33.869Z,24.00
2023-05-19T18:29:22.375Z,23.90
2023-05-19T18:32:08.279Z,24.00
2023-05-19T18:34:54.340Z,24.00
2023-05-19T18:37:39.572Z,23.90
2023-05-19T18:40:25.240Z,23.80
2023-05-19T18:43:14.450Z,23.50
2023-05-19T18:46:02.893Z,23.10
2023-05-19T18:48:51.287Z,22.60
2023-05-19T18:51:36.837Z,22.30
2023-05-19T18:54:22.401Z,22.10
2023-05-19T18:57:08.159Z,21.80
2023-05-19T18:59:53.740Z,21.50
2023-05-19T19:02:41.055Z,21.30
2023-05-19T19:05:26.552Z,21.00
2023-05-19T19:08:12.184Z,20.80
2023-05-19T19:11:01.028Z,20.50
2023-05-19T19:13:47.416Z,20.30
2023-05-19T19:16:33.273Z,20.10
2023-05-19T19:19:18.964Z,19.90
2023-05-19T19:22:07.320Z,19.70
2023-05-19T19:24:52.792Z,19.60
2023-05-19T19:27:38.732Z,19.50
2023-05-19T19:30:25.203Z,19.30
2023-05-19T19:33:11.254Z,19.10
2023-05-19T19:35:56.581Z,18.90
2023-05-19T19:38:42.135Z,18.80
2023-05-19T19:41:29.825Z,18.60
2023-05-19T19:44:16.550Z,18.50
2023-05-19T19:47:06.029Z,18.30
2023-05-19T19:49:51.827Z,18.20
2023-05-19T19:52:37.770Z,18.00
2023-05-19T19:55:23.105Z,17.90
2023-05-19T19:58:08.799Z,17.80
2023-05-19T20:01:02.948Z,17.80
2023-05-19T20:03:49.030Z,17.60
2023-05-19T20:06:34.617Z,17.50
2023-05-19T20:09:20.204Z,17.50
2023-05-19T20:12:05.897Z,17.50
2023-05-19T20:14:53.870Z,17.40
2023-05-19T20:17:39.696Z,17.30
2023-05-19T20:20:25.024Z,17.20
2023-05-19T20:23:10.336Z,17.10
2023-05-19T20:26:10.948Z,17.10
2023-05-19T20:28:59.027Z,17.00
2023-05-19T20:31:47.018Z,17.00
2023-05-19T20:34:32.678Z,16.90
2023-05-19T20:37:17.853Z,16.80
2023-05-19T20:40:03.723Z,16.80
2023-05-19T20:42:49.328Z,16.70
2023-05-19T20:45:35.019Z,16.60
2023-05-19T20:48:21.013Z,16.50
2023-05-19T20:51:06.908Z,16.50
2023-05-19T20:53:53.970Z,16.40
2023-05-19T20:56:39.715Z,16.40
2023-05-19T20:59:24.907Z,16.30
2023-05-19T21:02:11.823Z,16.30
2023-05-19T21:04:57.064Z,16.20
2023-05-19T21:07:42.636Z,16.20
2023-05-19T21:10:27.914Z,16.10
2023-05-19T21:13:13.704Z,16.10
2023-05-19T21:15:59.497Z,16.00
2023-05-19T21:18:45.164Z,16.00
2023-05-19T21:21:31.777Z,16.00
2023-05-19T21:24:17.624Z,15.90
2023-05-19T21:27:03.255Z,15.90
2023-05-19T21:29:53.247Z,15.80
2023-05-19T21:32:38.773Z,15.70
2023-05-19T21:35:26.880Z,15.70
2023-05-19T21:38:23.309Z,15.70
2023-05-19T21:41:09.393Z,15.60
2023-05-19T21:43:54.698Z,15.50
2023-05-19T21:46:40.431Z,15.50
2023-05-19T21:49:25.699Z,15.50
2023-05-19T21:52:11.137Z,15.50
2023-05-19T21:54:57.006Z,15.50
2023-05-19T21:57:42.923Z,15.50
2023-05-19T22:00:28.849Z,15.40
2023-05-19T22:03:14.280Z,15.30
2023-05-19T22:05:59.783Z,15.30
2023-05-19T22:08:45.233Z,15.30
2023-05-19T22:11:30.767Z,15.20
2023-05-19T22:14:16.375Z,15.10
2023-05-19T22:17:01.607Z,15.10
2023-05-19T22:19:48.622Z,15.00
2023-05-19T22:22:34.595Z,15.00
2023-05-19T22:25:23.473Z,14.90
2023-05-19T22:28:09.320Z,14.90
2023-05-19T22:30:54.842Z,14.90
2023-05-19T22:33:40.293Z,14.80
2023-05-19T22:36:25.874Z,14.70
2023-05-19T22:39:17.315Z,14.70
2023-05-19T22:42:02.683Z,14.70
2023-05-19T22:44:48.140Z,14.70
2023-05-19T22:47:33.587Z,14.60
2023-05-19T22:50:20.161Z,14.60
2023-05-19T22:53:05.853Z,14.50
2023-05-19T22:55:51.366Z,14.50
2023-05-19T22:58:36.908Z,14.40
2023-05-19T23:01:25.380Z,14.30
2023-05-19T23:04:11.851Z,14.30
2023-05-19T23:06:57.603Z,14.30
2023-05-19T23:09:43.503Z,14.30
2023-05-19T23:12:29.524Z,14.30
2023-05-19T23:15:17.078Z,14.20
2023-05-19T23:18:06.988Z,14.20
2023-05-19T23:20:52.316Z,14.20
2023-05-19T23:23:37.861Z,14.20
2023-05-19T23:26:23.547Z,14.10
2023-05-19T23:29:14.932Z,14.20
2023-05-19T23:32:00.254Z,14.10
2023-05-19T23:34:48.156Z,14.10
2023-05-19T23:37:33.481Z,14.10
2023-05-19T23:40:19.347Z,14.10
2023-05-19T23:43:05.084Z,14.00
2023-05-19T23:45:50.649Z,14.00
2023-05-19T23:48:36.689Z,13.90
2023-05-19T23:51:22.437Z,13.90
2023-05-19T23:54:07.947Z,13.90
2023-05-19T23:56:58.769Z,13.90
2023-05-19T23:59:44.492Z,13.80
